sensor_id;sensor_type;location;lat;lon;timestamp;P1;durP1;ratioP1;P2;durP2;ratioP2
76593;SDS011;65482;50.240;14.302;2022-11-25T00:00:10;31.63;;;15.88;;
76593;SDS011;65482;50.240;14.302;2022-11-25T00:02:56;31.55;;;14.95;;
76593;SDS011;65482;50.240;14.302;2022-11-25T00:05:23;35.15;;;15.00;;
76593;SDS011;65482;50.240;14.302;2022-11-25T00:07:49;30.15;;;14.52;;
76593;SDS011;65482;50.240;14.302;2022-11-25T00:10:15;25.17;;;13.02;;
76593;SDS011;65482;50.240;14.302;2022-11-25T00:12:41;25.75;;;12.13;;
76593;SDS011;65482;50.240;14.302;2022-11-25T00:15:06;23.40;;;11.93;;
76593;SDS011;65482;50.240;14.302;2022-11-25T00:17:32;21.77;;;11.35;;
76593;SDS011;65482;50.240;14.302;2022-11-25T00:19:58;28.63;;;11.30;;
76593;SDS011;65482;50.240;14.302;2022-11-25T00:22:25;17.35;;;9.93;;
76593;SDS011;65482;50.240;14.302;2022-11-25T00:24:51;19.77;;;9.75;;
76593;SDS011;65482;50.240;14.302;2022-11-25T00:27:17;18.35;;;9.25;;
76593;SDS011;65482;50.240;14.302;2022-11-25T00:29:42;13.95;;;8.18;;
76593;SDS011;65482;50.240;14.302;2022-11-25T00:32:08;13.10;;;7.88;;
76593;SDS011;65482;50.240;14.302;2022-11-25T00:34:33;14.88;;;7.10;;
76593;SDS011;65482;50.240;14.302;2022-11-25T00:36:59;14.43;;;6.97;;
76593;SDS011;65482;50.240;14.302;2022-11-25T00:39:24;16.33;;;7.03;;
76593;SDS011;65482;50.240;14.302;2022-11-25T00:41:51;12.85;;;6.88;;
76593;SDS011;65482;50.240;14.302;2022-11-25T00:44:35;12.98;;;6.25;;
76593;SDS011;65482;50.240;14.302;2022-11-25T00:49:35;10.57;;;5.83;;
76593;SDS011;65482;50.240;14.302;2022-11-25T00:52:01;12.02;;;6.20;;
76593;SDS011;65482;50.240;14.302;2022-11-25T00:54:27;10.27;;;5.72;;
76593;SDS011;65482;50.240;14.302;2022-11-25T00:56:53;9.15;;;5.78;;
76593;SDS011;65482;50.240;14.302;2022-11-25T00:59:19;11.65;;;6.40;;
76593;SDS011;65482;50.240;14.302;2022-11-25T01:01:44;11.25;;;6.65;;
76593;SDS011;65482;50.240;14.302;2022-11-25T01:04:10;13.73;;;6.57;;
76593;SDS011;65482;50.240;14.302;2022-11-25T01:06:36;11.27;;;6.47;;
76593;SDS011;65482;50.240;14.302;2022-11-25T01:09:03;11.55;;;6.80;;
76593;SDS011;65482;50.240;14.302;2022-11-25T01:11:29;11.68;;;6.55;;
76593;SDS011;65482;50.240;14.302;2022-11-25T01:13:55;12.45;;;7.28;;
76593;SDS011;65482;50.240;14.302;2022-11-25T01:16:21;16.35;;;7.97;;
76593;SDS011;65482;50.240;14.302;2022-11-25T01:18:47;15.25;;;7.93;;
76593;SDS011;65482;50.240;14.302;2022-11-25T01:23:44;16.08;;;8.20;;
76593;SDS011;65482;50.240;14.302;2022-11-25T01:26:13;15.43;;;8.60;;
76593;SDS011;65482;50.240;14.302;2022-11-25T01:28:40;16.42;;;8.18;;
76593;SDS011;65482;50.240;14.302;2022-11-25T01:31:06;14.93;;;7.63;;
76593;SDS011;65482;50.240;14.302;2022-11-25T01:33:37;13.27;;;7.10;;
76593;SDS011;65482;50.240;14.302;2022-11-25T01:36:03;12.45;;;7.03;;
76593;SDS011;65482;50.240;14.302;2022-11-25T01:38:31;11.98;;;6.93;;
76593;SDS011;65482;50.240;14.302;2022-11-25T01:40:57;17.63;;;7.70;;
76593;SDS011;65482;50.240;14.302;2022-11-25T01:43:24;14.98;;;6.88;;
76593;SDS011;65482;50.240;14.302;2022-11-25T01:45:50;13.70;;;7.20;;
76593;SDS011;65482;50.240;14.302;2022-11-25T01:48:19;11.52;;;7.50;;
76593;SDS011;65482;50.240;14.302;2022-11-25T01:50:49;15.90;;;7.43;;
76593;SDS011;65482;50.240;14.302;2022-11-25T01:53:16;15.18;;;8.30;;
76593;SDS011;65482;50.240;14.302;2022-11-25T01:55:48;14.73;;;7.22;;
76593;SDS011;65482;50.240;14.302;2022-11-25T01:58:20;14.73;;;7.65;;
76593;SDS011;65482;50.240;14.302;2022-11-25T02:00:50;18.92;;;9.38;;
76593;SDS011;65482;50.240;14.302;2022-11-25T02:03:32;20.30;;;8.93;;
76593;SDS011;65482;50.240;14.302;2022-11-25T02:08:55;16.27;;;8.30;;
76593;SDS011;65482;50.240;14.302;2022-11-25T02:11:25;15.50;;;8.20;;
76593;SDS011;65482;50.240;14.302;2022-11-25T02:13:55;18.13;;;8.43;;
76593;SDS011;65482;50.240;14.302;2022-11-25T02:16:22;15.27;;;7.18;;
76593;SDS011;65482;50.240;14.302;2022-11-25T02:18:48;15.63;;;8.70;;
76593;SDS011;65482;50.240;14.302;2022-11-25T02:21:16;15.20;;;8.32;;
76593;SDS011;65482;50.240;14.302;2022-11-25T02:23:47;19.55;;;8.60;;
76593;SDS011;65482;50.240;14.302;2022-11-25T02:26:20;13.82;;;7.28;;
76593;SDS011;65482;50.240;14.302;2022-11-25T02:28:46;15.52;;;7.78;;
76593;SDS011;65482;50.240;14.302;2022-11-25T02:31:17;15.93;;;7.78;;
76593;SDS011;65482;50.240;14.302;2022-11-25T02:33:44;14.25;;;7.72;;
76593;SDS011;65482;50.240;14.302;2022-11-25T02:36:11;13.60;;;7.50;;
76593;SDS011;65482;50.240;14.302;2022-11-25T02:38:47;13.98;;;7.10;;
76593;SDS011;65482;50.240;14.302;2022-11-25T02:41:20;14.60;;;7.80;;
76593;SDS011;65482;50.240;14.302;2022-11-25T02:43:49;19.73;;;8.63;;
76593;SDS011;65482;50.240;14.302;2022-11-25T02:46:16;20.15;;;9.15;;
76593;SDS011;65482;50.240;14.302;2022-11-25T02:48:43;22.45;;;9.40;;
76593;SDS011;65482;50.240;14.302;2022-11-25T02:51:10;32.88;;;12.45;;
76593;SDS011;65482;50.240;14.302;2022-11-25T02:53:39;27.45;;;10.80;;
76593;SDS011;65482;50.240;14.302;2022-11-25T02:56:05;24.00;;;10.30;;
76593;SDS011;65482;50.240;14.302;2022-11-25T02:58:31;26.48;;;10.00;;
76593;SDS011;65482;50.240;14.302;2022-11-25T03:00:56;19.83;;;9.40;;
76593;SDS011;65482;50.240;14.302;2022-11-25T03:03:22;21.83;;;9.57;;
76593;SDS011;65482;50.240;14.302;2022-11-25T03:05:48;24.08;;;10.10;;
76593;SDS011;65482;50.240;14.302;2022-11-25T03:08:13;18.02;;;9.43;;
76593;SDS011;65482;50.240;14.302;2022-11-25T03:10:39;21.88;;;9.02;;
76593;SDS011;65482;50.240;14.302;2022-11-25T03:13:05;20.23;;;9.75;;
76593;SDS011;65482;50.240;14.302;2022-11-25T03:15:31;23.50;;;9.98;;
76593;SDS011;65482;50.240;14.302;2022-11-25T03:17:57;14.95;;;9.23;;
76593;SDS011;65482;50.240;14.302;2022-11-25T03:20:23;18.70;;;9.05;;
76593;SDS011;65482;50.240;14.302;2022-11-25T03:22:49;16.45;;;9.40;;
76593;SDS011;65482;50.240;14.302;2022-11-25T03:25:15;16.95;;;8.63;;
76593;SDS011;65482;50.240;14.302;2022-11-25T03:27:41;14.50;;;7.93;;
76593;SDS011;65482;50.240;14.302;2022-11-25T03:30:08;14.45;;;8.18;;
76593;SDS011;65482;50.240;14.302;2022-11-25T03:32:40;13.73;;;7.47;;
76593;SDS011;65482;50.240;14.302;2022-11-25T03:35:05;13.35;;;7.20;;
76593;SDS011;65482;50.240;14.302;2022-11-25T03:37:32;14.20;;;7.15;;
76593;SDS011;65482;50.240;14.302;2022-11-25T03:39:57;14.02;;;7.50;;
76593;SDS011;65482;50.240;14.302;2022-11-25T03:42:23;12.38;;;7.43;;
76593;SDS011;65482;50.240;14.302;2022-11-25T03:44:49;14.48;;;7.50;;
76593;SDS011;65482;50.240;14.302;2022-11-25T03:47:14;13.43;;;6.70;;
76593;SDS011;65482;50.240;14.302;2022-11-25T03:49:40;13.88;;;6.43;;
76593;SDS011;65482;50.240;14.302;2022-11-25T03:52:06;10.93;;;6.32;;
76593;SDS011;65482;50.240;14.302;2022-11-25T03:54:31;13.05;;;6.82;;
76593;SDS011;65482;50.240;14.302;2022-11-25T03:56:57;13.23;;;7.68;;
76593;SDS011;65482;50.240;14.302;2022-11-25T03:59:22;16.08;;;7.25;;
76593;SDS011;65482;50.240;14.302;2022-11-25T04:01:49;14.27;;;6.82;;
76593;SDS011;65482;50.240;14.302;2022-11-25T04:04:14;12.93;;;6.82;;
76593;SDS011;65482;50.240;14.302;2022-11-25T04:06:40;15.95;;;7.30;;
76593;SDS011;65482;50.240;14.302;2022-11-25T04:09:06;15.95;;;7.28;;
76593;SDS011;65482;50.240;14.302;2022-11-25T04:11:33;13.38;;;7.60;;
76593;SDS011;65482;50.240;14.302;2022-11-25T04:14:17;12.20;;;7.40;;
76593;SDS011;65482;50.240;14.302;2022-11-25T04:16:43;14.98;;;7.38;;
76593;SDS011;65482;50.240;14.302;2022-11-25T04:19:08;13.57;;;8.15;;
76593;SDS011;65482;50.240;14.302;2022-11-25T04:21:34;13.88;;;7.63;;
76593;SDS011;65482;50.240;14.302;2022-11-25T04:23:59;12.52;;;7.57;;
76593;SDS011;65482;50.240;14.302;2022-11-25T04:26:25;14.18;;;7.47;;
76593;SDS011;65482;50.240;14.302;2022-11-25T04:28:51;13.85;;;7.38;;
76593;SDS011;65482;50.240;14.302;2022-11-25T04:31:16;15.20;;;7.30;;
76593;SDS011;65482;50.240;14.302;2022-11-25T04:33:42;11.85;;;6.95;;
76593;SDS011;65482;50.240;14.302;2022-11-25T04:36:08;16.25;;;8.23;;
76593;SDS011;65482;50.240;14.302;2022-11-25T04:38:34;15.43;;;7.45;;
76593;SDS011;65482;50.240;14.302;2022-11-25T04:41:00;14.57;;;7.78;;
76593;SDS011;65482;50.240;14.302;2022-11-25T04:43:25;17.30;;;8.45;;
76593;SDS011;65482;50.240;14.302;2022-11-25T04:45:51;14.30;;;8.35;;
76593;SDS011;65482;50.240;14.302;2022-11-25T04:48:17;16.13;;;8.18;;
76593;SDS011;65482;50.240;14.302;2022-11-25T04:50:43;13.60;;;8.02;;
76593;SDS011;65482;50.240;14.302;2022-11-25T04:53:09;18.10;;;8.48;;
76593;SDS011;65482;50.240;14.302;2022-11-25T04:55:35;16.92;;;7.88;;
76593;SDS011;65482;50.240;14.302;2022-11-25T04:58:00;15.13;;;7.90;;
76593;SDS011;65482;50.240;14.302;2022-11-25T05:00:26;12.75;;;8.07;;
76593;SDS011;65482;50.240;14.302;2022-11-25T05:02:51;14.35;;;7.50;;
76593;SDS011;65482;50.240;14.302;2022-11-25T05:05:17;14.85;;;7.13;;
76593;SDS011;65482;50.240;14.302;2022-11-25T05:07:43;13.32;;;7.43;;
76593;SDS011;65482;50.240;14.302;2022-11-25T05:10:09;15.60;;;6.97;;
76593;SDS011;65482;50.240;14.302;2022-11-25T05:12:34;15.40;;;7.53;;
76593;SDS011;65482;50.240;14.302;2022-11-25T05:15:00;12.60;;;7.70;;
76593;SDS011;65482;50.240;14.302;2022-11-25T05:17:27;13.82;;;7.47;;
76593;SDS011;65482;50.240;14.302;2022-11-25T05:19:54;15.77;;;7.68;;
76593;SDS011;65482;50.240;14.302;2022-11-25T05:22:21;13.30;;;8.00;;
76593;SDS011;65482;50.240;14.302;2022-11-25T05:24:48;14.18;;;7.65;;
76593;SDS011;65482;50.240;14.302;2022-11-25T05:27:14;14.35;;;7.40;;
76593;SDS011;65482;50.240;14.302;2022-11-25T05:29:40;13.57;;;8.20;;
76593;SDS011;65482;50.240;14.302;2022-11-25T05:32:06;11.88;;;7.43;;
76593;SDS011;65482;50.240;14.302;2022-11-25T05:34:32;13.57;;;7.32;;
76593;SDS011;65482;50.240;14.302;2022-11-25T05:36:58;12.80;;;7.25;;
76593;SDS011;65482;50.240;14.302;2022-11-25T05:39:23;13.50;;;7.50;;
76593;SDS011;65482;50.240;14.302;2022-11-25T05:41:49;15.27;;;8.02;;
76593;SDS011;65482;50.240;14.302;2022-11-25T05:44:15;13.65;;;7.82;;
76593;SDS011;65482;50.240;14.302;2022-11-25T05:46:42;15.57;;;7.78;;
76593;SDS011;65482;50.240;14.302;2022-11-25T05:49:09;14.00;;;8.13;;
76593;SDS011;65482;50.240;14.302;2022-11-25T05:51:35;17.05;;;9.75;;
76593;SDS011;65482;50.240;14.302;2022-11-25T05:54:01;20.08;;;10.48;;
76593;SDS011;65482;50.240;14.302;2022-11-25T05:56:26;21.42;;;11.00;;
76593;SDS011;65482;50.240;14.302;2022-11-25T05:58:52;20.90;;;10.73;;
76593;SDS011;65482;50.240;14.302;2022-11-25T06:01:19;17.30;;;9.70;;
76593;SDS011;65482;50.240;14.302;2022-11-25T06:03:45;20.58;;;11.52;;
76593;SDS011;65482;50.240;14.302;2022-11-25T06:06:11;28.23;;;12.40;;
76593;SDS011;65482;50.240;14.302;2022-11-25T06:08:37;23.40;;;11.50;;
76593;SDS011;65482;50.240;14.302;2022-11-25T06:11:07;27.10;;;12.90;;
76593;SDS011;65482;50.240;14.302;2022-11-25T06:13:37;23.90;;;12.35;;
76593;SDS011;65482;50.240;14.302;2022-11-25T06:16:08;27.42;;;13.10;;
76593;SDS011;65482;50.240;14.302;2022-11-25T06:18:40;32.38;;;14.57;;
76593;SDS011;65482;50.240;14.302;2022-11-25T06:21:06;29.23;;;12.68;;
76593;SDS011;65482;50.240;14.302;2022-11-25T06:37:18;29.67;;;12.18;;
76593;SDS011;65482;50.240;14.302;2022-11-25T06:39:52;31.80;;;12.88;;
76593;SDS011;65482;50.240;14.302;2022-11-25T07:03:02;23.33;;;10.88;;
76593;SDS011;65482;50.240;14.302;2022-11-25T07:05:29;22.77;;;10.57;;
76593;SDS011;65482;50.240;14.302;2022-11-25T07:07:55;20.77;;;10.65;;
76593;SDS011;65482;50.240;14.302;2022-11-25T07:10:22;27.38;;;11.27;;
76593;SDS011;65482;50.240;14.302;2022-11-25T07:12:48;21.48;;;10.75;;
76593;SDS011;65482;50.240;14.302;2022-11-25T07:15:14;25.23;;;13.57;;
76593;SDS011;65482;50.240;14.302;2022-11-25T07:17:39;28.48;;;13.55;;
76593;SDS011;65482;50.240;14.302;2022-11-25T07:20:05;24.40;;;13.52;;
76593;SDS011;65482;50.240;14.302;2022-11-25T07:22:32;35.15;;;16.85;;
76593;SDS011;65482;50.240;14.302;2022-11-25T07:24:58;41.17;;;18.88;;
76593;SDS011;65482;50.240;14.302;2022-11-25T07:27:24;42.60;;;20.25;;
76593;SDS011;65482;50.240;14.302;2022-11-25T07:29:49;49.28;;;23.27;;
76593;SDS011;65482;50.240;14.302;2022-11-25T07:32:15;50.85;;;23.65;;
76593;SDS011;65482;50.240;14.302;2022-11-25T07:34:41;38.38;;;19.33;;
76593;SDS011;65482;50.240;14.302;2022-11-25T07:37:07;31.70;;;16.63;;
76593;SDS011;65482;50.240;14.302;2022-11-25T07:39:33;27.40;;;14.88;;
76593;SDS011;65482;50.240;14.302;2022-11-25T07:41:59;26.88;;;14.85;;
76593;SDS011;65482;50.240;14.302;2022-11-25T07:44:33;27.05;;;13.95;;
76593;SDS011;65482;50.240;14.302;2022-11-25T07:50:16;72.80;;;29.63;;
76593;SDS011;65482;50.240;14.302;2022-11-25T07:52:52;128.23;;;47.40;;
76593;SDS011;65482;50.240;14.302;2022-11-25T09:35:59;26.40;;;14.57;;
76593;SDS011;65482;50.240;14.302;2022-11-25T12:35:04;11.32;;;6.50;;
76593;SDS011;65482;50.240;14.302;2022-11-25T12:40:32;10.35;;;6.22;;
76593;SDS011;65482;50.240;14.302;2022-11-25T13:14:17;16.23;;;7.22;;
76593;SDS011;65482;50.240;14.302;2022-11-25T13:17:28;12.50;;;6.70;;
76593;SDS011;65482;50.240;14.302;2022-11-25T13:21:10;14.02;;;6.78;;
76593;SDS011;65482;50.240;14.302;2022-11-25T13:24:01;12.60;;;6.97;;
76593;SDS011;65482;50.240;14.302;2022-11-25T13:26:55;15.68;;;7.30;;
76593;SDS011;65482;50.240;14.302;2022-11-25T13:35:30;14.43;;;7.28;;
76593;SDS011;65482;50.240;14.302;2022-11-25T13:47:37;14.18;;;7.30;;
76593;SDS011;65482;50.240;14.302;2022-11-25T13:50:35;13.30;;;6.90;;
76593;SDS011;65482;50.240;14.302;2022-11-25T13:53:27;13.13;;;7.15;;
76593;SDS011;65482;50.240;14.302;2022-11-25T13:56:24;22.40;;;10.10;;
76593;SDS011;65482;50.240;14.302;2022-11-25T14:01:59;19.70;;;11.10;;
76593;SDS011;65482;50.240;14.302;2022-11-25T14:05:03;18.40;;;9.32;;
76593;SDS011;65482;50.240;14.302;2022-11-25T14:13:54;17.75;;;8.80;;
76593;SDS011;65482;50.240;14.302;2022-11-25T14:16:53;21.75;;;8.95;;
76593;SDS011;65482;50.240;14.302;2022-11-25T14:25:47;21.58;;;9.82;;
76593;SDS011;65482;50.240;14.302;2022-11-25T14:28:52;21.42;;;10.15;;
76593;SDS011;65482;50.240;14.302;2022-11-25T14:31:45;22.92;;;10.23;;
76593;SDS011;65482;50.240;14.302;2022-11-25T14:43:29;21.42;;;9.75;;
76593;SDS011;65482;50.240;14.302;2022-11-25T14:46:28;17.95;;;9.30;;
76593;SDS011;65482;50.240;14.302;2022-11-25T14:49:11;15.45;;;8.60;;
76593;SDS011;65482;50.240;14.302;2022-11-25T14:51:46;14.70;;;8.75;;
76593;SDS011;65482;50.240;14.302;2022-11-25T14:54:24;17.75;;;8.95;;
76593;SDS011;65482;50.240;14.302;2022-11-25T14:57:08;22.75;;;9.65;;
76593;SDS011;65482;50.240;14.302;2022-11-25T14:59:35;21.52;;;8.88;;
76593;SDS011;65482;50.240;14.302;2022-11-25T15:02:18;24.92;;;10.10;;
76593;SDS011;65482;50.240;14.302;2022-11-25T15:04:52;23.85;;;11.55;;
76593;SDS011;65482;50.240;14.302;2022-11-25T15:11:06;43.78;;;15.77;;
76593;SDS011;65482;50.240;14.302;2022-11-25T15:13:46;46.15;;;19.90;;
76593;SDS011;65482;50.240;14.302;2022-11-25T15:19:18;42.35;;;21.23;;
76593;SDS011;65482;50.240;14.302;2022-11-25T15:22:10;45.38;;;19.10;;
76593;SDS011;65482;50.240;14.302;2022-11-25T15:25:13;41.35;;;20.63;;
76593;SDS011;65482;50.240;14.302;2022-11-25T15:30:57;41.50;;;20.27;;
76593;SDS011;65482;50.240;14.302;2022-11-25T15:33:36;38.00;;;18.73;;
76593;SDS011;65482;50.240;14.302;2022-11-25T15:36:30;30.40;;;16.65;;
76593;SDS011;65482;50.240;14.302;2022-11-25T15:43:24;44.78;;;21.02;;
76593;SDS011;65482;50.240;14.302;2022-11-25T15:46:09;56.47;;;24.55;;
76593;SDS011;65482;50.240;14.302;2022-11-25T15:48:49;55.72;;;25.17;;
76593;SDS011;65482;50.240;14.302;2022-11-25T15:54:56;61.95;;;25.70;;
76593;SDS011;65482;50.240;14.302;2022-11-25T16:00:15;53.35;;;22.90;;
76593;SDS011;65482;50.240;14.302;2022-11-25T16:02:55;52.65;;;23.67;;
76593;SDS011;65482;50.240;14.302;2022-11-25T16:05:24;48.03;;;22.63;;
76593;SDS011;65482;50.240;14.302;2022-11-25T16:08:32;53.35;;;23.67;;
76593;SDS011;65482;50.240;14.302;2022-11-25T16:11:14;75.05;;;25.63;;
76593;SDS011;65482;50.240;14.302;2022-11-25T16:14:02;70.40;;;24.70;;
76593;SDS011;65482;50.240;14.302;2022-11-25T16:17:12;82.65;;;28.67;;
76593;SDS011;65482;50.240;14.302;2022-11-25T16:19:39;66.40;;;26.08;;
76593;SDS011;65482;50.240;14.302;2022-11-25T16:22:19;120.72;;;28.60;;
76593;SDS011;65482;50.240;14.302;2022-11-25T16:25:04;81.53;;;24.85;;
76593;SDS011;65482;50.240;14.302;2022-11-25T16:27:54;74.05;;;27.13;;
76593;SDS011;65482;50.240;14.302;2022-11-25T16:30:46;101.20;;;26.58;;
76593;SDS011;65482;50.240;14.302;2022-11-25T16:33:17;71.18;;;23.65;;
76593;SDS011;65482;50.240;14.302;2022-11-25T16:35:43;64.65;;;23.25;;
76593;SDS011;65482;50.240;14.302;2022-11-25T16:38:17;111.60;;;26.77;;
76593;SDS011;65482;50.240;14.302;2022-11-25T16:40:59;73.80;;;24.20;;
76593;SDS011;65482;50.240;14.302;2022-11-25T16:43:40;78.80;;;25.00;;
76593;SDS011;65482;50.240;14.302;2022-11-25T16:46:13;80.53;;;21.75;;
76593;SDS011;65482;50.240;14.302;2022-11-25T16:48:47;75.38;;;22.17;;
76593;SDS011;65482;50.240;14.302;2022-11-25T16:51:23;72.93;;;22.75;;
76593;SDS011;65482;50.240;14.302;2022-11-25T16:54:04;76.88;;;24.30;;
76593;SDS011;65482;50.240;14.302;2022-11-25T16:56:44;67.78;;;24.98;;
76593;SDS011;65482;50.240;14.302;2022-11-25T16:59:36;66.00;;;23.50;;
76593;SDS011;65482;50.240;14.302;2022-11-25T17:02:15;96.25;;;25.52;;
76593;SDS011;65482;50.240;14.302;2022-11-25T17:04:45;117.03;;;27.27;;
76593;SDS011;65482;50.240;14.302;2022-11-25T17:07:19;88.47;;;26.25;;
76593;SDS011;65482;50.240;14.302;2022-11-25T17:17:37;109.80;;;26.33;;
76593;SDS011;65482;50.240;14.302;2022-11-25T17:20:26;79.47;;;24.75;;
76593;SDS011;65482;50.240;14.302;2022-11-25T17:23:16;48.88;;;21.13;;
76593;SDS011;65482;50.240;14.302;2022-11-25T17:26:05;43.83;;;20.63;;
76593;SDS011;65482;50.240;14.302;2022-11-25T17:28:53;60.25;;;20.50;;
76593;SDS011;65482;50.240;14.302;2022-11-25T17:31:22;53.03;;;19.98;;
76593;SDS011;65482;50.240;14.302;2022-11-25T17:33:51;56.80;;;20.52;;
76593;SDS011;65482;50.240;14.302;2022-11-25T17:36:18;65.65;;;23.23;;
76593;SDS011;65482;50.240;14.302;2022-11-25T17:38:43;44.78;;;20.60;;
76593;SDS011;65482;50.240;14.302;2022-11-25T17:41:11;58.33;;;23.52;;
76593;SDS011;65482;50.240;14.302;2022-11-25T17:43:38;59.70;;;23.40;;
76593;SDS011;65482;50.240;14.302;2022-11-25T17:46:04;84.57;;;24.38;;
76593;SDS011;65482;50.240;14.302;2022-11-25T17:48:30;54.70;;;22.15;;
76593;SDS011;65482;50.240;14.302;2022-11-25T17:50:56;116.70;;;27.02;;
76593;SDS011;65482;50.240;14.302;2022-11-25T17:53:22;65.15;;;23.92;;
76593;SDS011;65482;50.240;14.302;2022-11-25T17:55:48;95.32;;;23.80;;
76593;SDS011;65482;50.240;14.302;2022-11-25T17:58:15;108.38;;;23.15;;
76593;SDS011;65482;50.240;14.302;2022-11-25T18:00:43;69.28;;;22.42;;
76593;SDS011;65482;50.240;14.302;2022-11-25T18:03:11;50.05;;;20.27;;
76593;SDS011;65482;50.240;14.302;2022-11-25T18:05:37;46.92;;;21.15;;
76593;SDS011;65482;50.240;14.302;2022-11-25T18:08:03;59.97;;;19.92;;
76593;SDS011;65482;50.240;14.302;2022-11-25T18:10:29;56.55;;;20.88;;
76593;SDS011;65482;50.240;14.302;2022-11-25T18:12:55;83.03;;;21.85;;
76593;SDS011;65482;50.240;14.302;2022-11-25T18:15:22;50.03;;;18.95;;
76593;SDS011;65482;50.240;14.302;2022-11-25T18:17:50;43.83;;;18.35;;
76593;SDS011;65482;50.240;14.302;2022-11-25T18:20:24;70.15;;;18.30;;
76593;SDS011;65482;50.240;14.302;2022-11-25T18:22:50;67.93;;;19.27;;
76593;SDS011;65482;50.240;14.302;2022-11-25T18:25:18;67.07;;;19.35;;
76593;SDS011;65482;50.240;14.302;2022-11-25T18:27:46;44.83;;;19.27;;
76593;SDS011;65482;50.240;14.302;2022-11-25T18:30:14;49.42;;;19.30;;
76593;SDS011;65482;50.240;14.302;2022-11-25T18:32:40;34.72;;;17.95;;
76593;SDS011;65482;50.240;14.302;2022-11-25T18:35:13;37.50;;;19.70;;
76593;SDS011;65482;50.240;14.302;2022-11-25T18:37:45;37.92;;;19.08;;
76593;SDS011;65482;50.240;14.302;2022-11-25T18:40:11;35.90;;;19.98;;
76593;SDS011;65482;50.240;14.302;2022-11-25T18:42:39;43.47;;;20.10;;
76593;SDS011;65482;50.240;14.302;2022-11-25T18:45:21;43.58;;;18.80;;
76593;SDS011;65482;50.240;14.302;2022-11-25T18:47:49;38.38;;;18.73;;
76593;SDS011;65482;50.240;14.302;2022-11-25T18:50:16;94.10;;;22.35;;
76593;SDS011;65482;50.240;14.302;2022-11-25T18:52:43;42.63;;;20.45;;
76593;SDS011;65482;50.240;14.302;2022-11-25T18:55:11;93.25;;;23.45;;
76593;SDS011;65482;50.240;14.302;2022-11-25T18:57:38;43.90;;;20.65;;
76593;SDS011;65482;50.240;14.302;2022-11-25T19:00:06;50.20;;;21.95;;
76593;SDS011;65482;50.240;14.302;2022-11-25T19:02:36;53.83;;;22.40;;
76593;SDS011;65482;50.240;14.302;2022-11-25T19:05:21;85.97;;;28.75;;
76593;SDS011;65482;50.240;14.302;2022-11-25T19:07:52;92.88;;;30.60;;
76593;SDS011;65482;50.240;14.302;2022-11-25T19:10:21;94.18;;;33.13;;
76593;SDS011;65482;50.240;14.302;2022-11-25T19:12:50;94.78;;;30.42;;
76593;SDS011;65482;50.240;14.302;2022-11-25T19:15:23;64.90;;;25.48;;
76593;SDS011;65482;50.240;14.302;2022-11-25T19:17:51;54.75;;;24.00;;
76593;SDS011;65482;50.240;14.302;2022-11-25T19:20:21;52.45;;;24.38;;
76593;SDS011;65482;50.240;14.302;2022-11-25T19:22:49;52.03;;;23.48;;
76593;SDS011;65482;50.240;14.302;2022-11-25T19:25:14;48.65;;;24.17;;
76593;SDS011;65482;50.240;14.302;2022-11-25T19:27:41;48.88;;;22.60;;
76593;SDS011;65482;50.240;14.302;2022-11-25T19:30:17;49.22;;;21.73;;
76593;SDS011;65482;50.240;14.302;2022-11-25T19:32:48;44.25;;;21.33;;
76593;SDS011;65482;50.240;14.302;2022-11-25T19:35:19;44.45;;;19.67;;
76593;SDS011;65482;50.240;14.302;2022-11-25T19:37:48;43.42;;;20.80;;
76593;SDS011;65482;50.240;14.302;2022-11-25T19:40:16;41.92;;;21.38;;
76593;SDS011;65482;50.240;14.302;2022-11-25T19:42:43;40.33;;;20.60;;
76593;SDS011;65482;50.240;14.302;2022-11-25T19:45:14;41.38;;;21.10;;
76593;SDS011;65482;50.240;14.302;2022-11-25T19:47:41;39.05;;;19.70;;
76593;SDS011;65482;50.240;14.302;2022-11-25T19:50:11;38.10;;;20.08;;
76593;SDS011;65482;50.240;14.302;2022-11-25T19:52:44;39.15;;;20.70;;
76593;SDS011;65482;50.240;14.302;2022-11-25T19:55:14;42.58;;;20.90;;
76593;SDS011;65482;50.240;14.302;2022-11-25T19:57:41;39.80;;;20.38;;
76593;SDS011;65482;50.240;14.302;2022-11-25T20:00:07;39.80;;;20.70;;
76593;SDS011;65482;50.240;14.302;2022-11-25T20:02:34;43.65;;;21.98;;
76593;SDS011;65482;50.240;14.302;2022-11-25T20:05:01;42.05;;;20.17;;
76593;SDS011;65482;50.240;14.302;2022-11-25T20:07:28;40.00;;;21.40;;
76593;SDS011;65482;50.240;14.302;2022-11-25T20:09:59;36.78;;;20.52;;
76593;SDS011;65482;50.240;14.302;2022-11-25T20:12:35;34.50;;;19.88;;
76593;SDS011;65482;50.240;14.302;2022-11-25T20:15:01;41.83;;;21.60;;
76593;SDS011;65482;50.240;14.302;2022-11-25T20:17:27;41.92;;;21.58;;
76593;SDS011;65482;50.240;14.302;2022-11-25T20:20:04;41.47;;;22.00;;
76593;SDS011;65482;50.240;14.302;2022-11-25T20:22:34;38.78;;;21.10;;
76593;SDS011;65482;50.240;14.302;2022-11-25T20:25:03;40.90;;;21.00;;
76593;SDS011;65482;50.240;14.302;2022-11-25T20:27:31;41.58;;;21.67;;
76593;SDS011;65482;50.240;14.302;2022-11-25T20:29:59;42.83;;;22.23;;
76593;SDS011;65482;50.240;14.302;2022-11-25T20:32:25;44.67;;;23.40;;
76593;SDS011;65482;50.240;14.302;2022-11-25T20:34:56;45.65;;;23.00;;
76593;SDS011;65482;50.240;14.302;2022-11-25T20:37:27;46.45;;;22.67;;
76593;SDS011;65482;50.240;14.302;2022-11-25T20:39:55;43.90;;;22.92;;
76593;SDS011;65482;50.240;14.302;2022-11-25T20:42:23;45.88;;;23.30;;
76593;SDS011;65482;50.240;14.302;2022-11-25T20:44:49;46.35;;;23.40;;
76593;SDS011;65482;50.240;14.302;2022-11-25T20:47:16;44.88;;;23.35;;
76593;SDS011;65482;50.240;14.302;2022-11-25T20:49:45;50.50;;;25.40;;
76593;SDS011;65482;50.240;14.302;2022-11-25T20:52:30;52.28;;;24.98;;
76593;SDS011;65482;50.240;14.302;2022-11-25T20:54:58;58.42;;;28.00;;
76593;SDS011;65482;50.240;14.302;2022-11-25T20:57:25;53.25;;;27.48;;
76593;SDS011;65482;50.240;14.302;2022-11-25T20:59:51;56.05;;;28.10;;
76593;SDS011;65482;50.240;14.302;2022-11-25T21:02:17;65.65;;;30.52;;
76593;SDS011;65482;50.240;14.302;2022-11-25T21:04:46;61.10;;;32.45;;
76593;SDS011;65482;50.240;14.302;2022-11-25T21:07:14;68.63;;;34.20;;
76593;SDS011;65482;50.240;14.302;2022-11-25T21:09:42;74.70;;;34.75;;
76593;SDS011;65482;50.240;14.302;2022-11-25T21:12:11;78.35;;;36.40;;
76593;SDS011;65482;50.240;14.302;2022-11-25T21:14:39;79.70;;;36.15;;
76593;SDS011;65482;50.240;14.302;2022-11-25T21:17:05;77.05;;;36.03;;
76593;SDS011;65482;50.240;14.302;2022-11-25T21:19:31;84.05;;;36.58;;
76593;SDS011;65482;50.240;14.302;2022-11-25T21:21:58;78.43;;;35.88;;
76593;SDS011;65482;50.240;14.302;2022-11-25T21:24:35;78.05;;;37.45;;
76593;SDS011;65482;50.240;14.302;2022-11-25T21:27:06;81.07;;;37.58;;
76593;SDS011;65482;50.240;14.302;2022-11-25T21:29:38;68.95;;;36.40;;
76593;SDS011;65482;50.240;14.302;2022-11-25T21:32:24;75.28;;;36.67;;
76593;SDS011;65482;50.240;14.302;2022-11-25T21:34:52;71.15;;;35.38;;
76593;SDS011;65482;50.240;14.302;2022-11-25T21:37:18;65.53;;;35.00;;
76593;SDS011;65482;50.240;14.302;2022-11-25T21:39:52;70.85;;;35.95;;